createdAt,value
2022-08-05T00:01:27.691Z,100549.52
2022-08-05T00:04:19.690Z,100559.05
2022-08-05T00:07:27.227Z,100559.05
2022-08-05T00:10:17.800Z,100562.02
2022-08-05T00:13:06.759Z,100555.27
2022-08-05T00:16:11.060Z,100555.53
2022-08-05T00:19:03.028Z,100551.48
2022-08-05T00:21:54.074Z,100549.33
2022-08-05T00:24:44.057Z,100556.64
2022-08-05T00:27:36.152Z,100549.89
2022-08-05T00:30:29.072Z,100560.17
2022-08-05T00:34:56.798Z,100549.89
2022-08-05T00:37:10.307Z,100550.44
2022-08-05T00:39:44.347Z,100552.88
2022-08-05T00:42:49.062Z,100545.59
2022-08-05T00:45:43.662Z,100549.66
2022-08-05T00:48:34.222Z,100543.46
2022-08-05T00:51:51.676Z,100540.23
2022-08-05T00:54:42.042Z,100545.93
2022-08-05T00:57:55.372Z,100533.78
2022-08-05T01:00:42.540Z,100540.01
2022-08-05T01:03:33.409Z,100538.39
2022-08-05T01:06:32.693Z,100537.61
2022-08-05T01:09:22.284Z,100529.50
2022-08-05T01:12:19.190Z,100531.93
2022-08-05T01:15:35.296Z,100540.06
2022-08-05T01:18:27.486Z,100537.33
2022-08-05T01:21:38.144Z,100540.88
2022-08-05T01:24:48.139Z,100541.67
2022-08-05T01:27:55.819Z,100534.38
2022-08-05T01:30:53.947Z,100541.42
2022-08-05T01:33:53.671Z,100534.11
2022-08-05T01:36:47.654Z,100536.56
2022-08-05T01:39:46.224Z,100535.73
2022-08-05T01:42:39.412Z,100533.31
2022-08-05T01:45:35.045Z,100536.02
2022-08-05T01:48:35.148Z,100537.89
2022-08-05T01:51:27.095Z,100531.40
2022-08-05T01:54:25.575Z,100531.14
2022-08-05T01:58:30.023Z,100529.77
2022-08-05T02:00:30.375Z,100530.59
2022-08-05T02:03:28.900Z,100529.50
2022-08-05T02:06:37.777Z,100533.00
2022-08-05T02:09:28.244Z,100536.23
2022-08-05T02:12:25.829Z,100535.12
2022-08-05T02:15:22.904Z,100527.28
2022-08-05T02:18:31.819Z,100533.47
2022-08-05T02:21:26.690Z,100532.37
2022-08-05T02:24:23.388Z,100531.29
2022-08-05T02:27:13.324Z,100527.77
2022-08-05T02:30:03.340Z,100529.09
2022-08-05T02:32:55.890Z,100535.85
2022-08-05T02:35:57.515Z,100529.59
2022-08-05T02:38:53.250Z,100523.90
2022-08-05T02:42:00.680Z,100530.91
2022-08-05T02:44:51.558Z,100525.48
2022-08-05T02:48:07.684Z,100534.39
2022-08-05T02:50:52.592Z,100532.75
2022-08-05T02:53:43.078Z,100540.55
2022-08-05T02:56:33.648Z,100536.75
2022-08-05T02:59:26.941Z,100537.27
2022-08-05T03:02:20.074Z,100539.70
2022-08-05T03:05:11.996Z,100547.50
2022-08-05T03:08:08.519Z,100547.44
2022-08-05T03:11:53.611Z,100552.56
2022-08-05T03:14:08.146Z,100554.95
2022-08-05T03:16:57.497Z,100551.15
2022-08-05T03:19:48.468Z,100548.97
2022-08-05T03:22:38.694Z,100549.49
2022-08-05T03:26:04.461Z,100550.02
2022-08-05T03:28:47.952Z,100548.91
2022-08-05T03:31:57.136Z,100547.55
2022-08-05T03:34:50.518Z,100557.23
2022-08-05T03:37:45.931Z,100550.45
2022-08-05T03:40:39.840Z,100554.50
2022-08-05T03:44:09.406Z,100553.95
2022-08-05T03:46:38.440Z,100551.20
2022-08-05T03:49:31.201Z,100553.91
2022-08-05T03:55:50.310Z,100557.92
2022-08-05T03:56:09.950Z,100557.92
2022-08-05T03:59:04.702Z,100553.87
2022-08-05T04:01:59.248Z,100563.83
2022-08-05T04:04:49.001Z,100561.97
2022-08-05T04:07:57.165Z,100557.12
2022-08-05T04:10:48.008Z,100559.82
2022-08-05T04:13:50.672Z,100552.52
2022-08-05T04:16:41.092Z,100550.38
2022-08-05T04:19:31.440Z,100552.01
2022-08-05T04:22:21.265Z,100550.94
2022-08-05T04:25:12.691Z,100552.56
2022-08-05T04:28:06.017Z,100551.80
2022-08-05T04:31:01.446Z,100552.91
2022-08-05T04:34:19.235Z,100549.42
2022-08-05T04:37:00.082Z,100544.37
2022-08-05T04:39:52.923Z,100540.34
2022-08-05T04:42:42.077Z,100549.89
2022-08-05T04:45:47.807Z,100545.66
2022-08-05T04:48:39.451Z,100540.55
2022-08-05T04:51:30.636Z,100537.34
2022-08-05T04:54:20.240Z,100533.89
2022-08-05T04:57:11.450Z,100531.77
2022-08-05T05:00:01.905Z,100538.59
2022-08-05T05:02:50.856Z,100539.16
2022-08-05T05:06:39.234Z,100533.24
2022-08-05T05:08:49.982Z,100535.72
2022-08-05T05:11:52.846Z,100528.98
2022-08-05T05:14:50.726Z,100531.69
2022-08-05T05:17:56.779Z,100532.23
2022-08-05T05:20:47.952Z,100539.51
2022-08-05T05:24:02.139Z,100528.44
2022-08-05T05:26:51.975Z,100524.61
2022-08-05T05:30:04.038Z,100531.33
2022-08-05T05:32:52.978Z,100532.36
2022-08-05T05:35:42.735Z,100523.64
2022-08-05T05:38:32.198Z,100526.05
2022-08-05T05:41:21.158Z,100525.17
2022-08-05T05:44:36.848Z,100521.58
2022-08-05T05:47:22.072Z,100532.03
2022-08-05T05:50:16.445Z,100532.22
2022-08-05T05:53:21.960Z,100528.30
2022-08-05T05:56:14.164Z,100532.84
2022-08-05T05:59:15.537Z,100526.17
2022-08-05T06:02:04.702Z,100532.55
2022-08-05T06:04:58.007Z,100533.19
2022-08-05T06:07:57.854Z,100544.45
2022-08-05T06:10:52.881Z,100534.22
2022-08-05T06:13:50.443Z,100531.84
2022-08-05T06:16:45.614Z,100530.22
2022-08-05T06:19:35.941Z,100529.73
2022-08-05T06:22:28.451Z,100536.30
2022-08-05T06:25:59.857Z,100535.55
2022-08-05T06:28:28.420Z,100541.06
2022-08-05T06:31:21.760Z,100539.19
2022-08-05T06:34:11.466Z,100540.35
2022-08-05T06:37:04.725Z,100540.40
2022-08-05T06:39:56.551Z,100537.48
2022-08-05T06:42:47.969Z,100540.53
2022-08-05T06:46:03.134Z,100536.83
2022-08-05T06:48:55.427Z,100541.76
2022-08-05T06:51:48.438Z,100547.86
2022-08-05T06:54:37.398Z,100545.72
2022-08-05T06:58:03.493Z,100545.22
2022-08-05T07:00:34.774Z,100533.77
2022-08-05T07:03:28.024Z,100538.71
2022-08-05T07:06:23.096Z,100538.27
2022-08-05T07:09:12.098Z,100534.23
2022-08-05T07:12:03.106Z,100536.72
2022-08-05T07:15:10.091Z,100532.95
2022-08-05T07:18:09.864Z,100532.71
2022-08-05T07:21:04.675Z,100521.53
2022-08-05T07:23:56.994Z,100522.40
2022-08-05T07:26:51.627Z,100526.48
2022-08-05T07:30:25.574Z,100524.93
2022-08-05T07:32:50.877Z,100525.78
2022-08-05T07:36:02.438Z,100520.38
2022-08-05T07:38:54.764Z,100523.45
2022-08-05T07:42:14.353Z,100523.81
2022-08-05T07:44:56.154Z,100518.06
2022-08-05T07:47:45.523Z,100524.36
2022-08-05T07:50:35.101Z,100517.81
2022-08-05T07:53:26.835Z,100517.70
2022-08-05T07:57:00.183Z,100512.08
2022-08-05T07:59:40.296Z,100511.16
2022-08-05T08:03:15.407Z,100511.50
2022-08-05T08:05:47.275Z,100507.48
2022-08-05T08:08:41.384Z,100503.77
2022-08-05T08:11:49.491Z,100505.34
2022-08-05T08:14:41.180Z,100508.70
2022-08-05T08:17:35.431Z,100509.82
2022-08-05T08:20:45.074Z,100511.55
2022-08-05T08:24:02.637Z,100509.41
2022-08-05T08:26:45.163Z,100502.70
2022-08-05T08:30:04.321Z,100504.63
2022-08-05T08:32:44.178Z,100497.63
2022-08-05T08:35:35.027Z,100493.84
2022-08-05T08:38:35.238Z,100500.81
2022-08-05T08:41:52.049Z,100497.84
2022-08-05T08:45:23.212Z,100489.47
2022-08-05T08:48:10.743Z,100495.73
2022-08-05T08:51:22.177Z,100484.25
2022-08-05T08:54:13.760Z,100470.21
2022-08-05T08:57:03.033Z,100475.86
2022-08-05T08:59:56.020Z,100470.23
2022-08-05T09:02:46.630Z,100464.19
2022-08-05T09:05:38.846Z,100465.92
2022-08-05T09:08:47.784Z,100462.93
2022-08-05T09:11:51.052Z,100461.89
2022-08-05T09:14:57.030Z,100463.83
2022-08-05T09:17:50.037Z,100463.83
2022-08-05T09:20:44.082Z,100465.55
2022-08-05T09:23:37.427Z,100466.30
2022-08-05T09:26:32.859Z,100454.91
2022-08-05T09:29:37.177Z,100447.64
2022-08-05T09:32:42.804Z,100436.94
2022-08-05T09:35:36.612Z,100439.48
2022-08-05T09:38:29.519Z,100435.23
2022-08-05T09:41:18.416Z,100435.41
2022-08-05T09:44:11.188Z,100434.36
2022-08-05T09:47:10.436Z,100432.77
2022-08-05T09:50:04.137Z,100435.67
2022-08-05T09:52:58.810Z,100421.56
2022-08-05T09:55:56.199Z,100423.67
2022-08-05T09:58:58.809Z,100421.50
2022-08-05T10:01:48.240Z,100421.81
2022-08-05T10:04:48.057Z,100419.36
2022-08-05T10:08:35.353Z,100412.69
2022-08-05T10:10:59.153Z,100415.72
2022-08-05T10:13:54.532Z,100416.60
2022-08-05T10:16:52.395Z,100411.42
2022-08-05T10:20:03.949Z,100408.34
2022-08-05T10:22:54.478Z,100397.75
2022-08-05T10:25:47.374Z,100403.27
2022-08-05T10:28:36.856Z,100407.56
2022-08-05T10:32:52.721Z,100398.28
2022-08-05T10:34:36.784Z,100390.73
2022-08-05T10:37:37.477Z,100391.95
2022-08-05T10:40:38.962Z,100394.57
2022-08-05T10:43:41.280Z,100385.94
2022-08-05T10:46:46.077Z,100384.98
2022-08-05T10:50:32.225Z,100384.20
2022-08-05T10:53:37.971Z,100381.44
2022-08-05T10:56:30.528Z,100381.94
2022-08-05T11:00:03.354Z,100372.58
2022-08-05T11:02:37.973Z,100366.77
2022-08-05T11:05:31.584Z,100372.86
2022-08-05T11:08:34.321Z,100365.53
2022-08-05T11:11:52.050Z,100363.48
2022-08-05T11:15:01.311Z,100360.23
2022-08-05T11:18:07.475Z,100355.27
2022-08-05T11:21:00.033Z,100355.85
2022-08-05T11:24:02.983Z,100361.38
2022-08-05T11:27:26.223Z,100360.28
2022-08-05T11:30:15.032Z,100361.02
2022-08-05T11:33:44.013Z,100353.20
2022-08-05T11:36:46.878Z,100352.11
2022-08-05T11:39:55.304Z,100357.02
2022-08-05T11:42:47.502Z,100345.37
2022-08-05T11:46:16.195Z,100340.17
2022-08-05T11:48:59.593Z,100344.89
2022-08-05T11:51:51.087Z,100338.00
2022-08-05T11:54:43.423Z,100340.86
2022-08-05T11:57:39.261Z,100335.72
2022-08-05T12:00:47.040Z,100333.78
2022-08-05T12:03:55.500Z,100330.18
2022-08-05T12:06:48.921Z,100331.88
2022-08-05T12:09:53.325Z,100329.42
2022-08-05T12:12:58.472Z,100324.25
2022-08-05T12:15:49.961Z,100323.08
2022-08-05T12:18:39.511Z,100325.64
2022-08-05T12:21:38.978Z,100331.70
2022-08-05T12:24:28.085Z,100329.86
2022-08-05T12:27:25.386Z,100327.09
2022-08-05T12:30:15.707Z,100313.77
2022-08-05T12:33:07.220Z,100316.66
2022-08-05T12:36:15.259Z,100310.06
2022-08-05T12:39:06.901Z,100303.42
2022-08-05T12:41:59.661Z,100304.67
2022-08-05T12:44:49.721Z,100299.21
2022-08-05T12:47:43.572Z,100298.03
2022-08-05T12:52:10.129Z,100305.58
2022-08-05T12:54:29.657Z,100297.34
2022-08-05T12:57:23.428Z,100287.91
2022-08-05T13:02:00.764Z,100286.77
2022-08-05T13:03:32.893Z,100273.67
2022-08-05T13:06:22.625Z,100279.63
2022-08-05T13:09:12.787Z,100274.08
2022-08-05T13:12:08.736Z,100274.49
2022-08-05T13:15:13.709Z,100268.59
2022-08-05T13:18:06.471Z,100272.61
2022-08-05T13:20:55.894Z,100261.13
2022-08-05T13:23:50.868Z,100268.33
2022-08-05T13:26:41.395Z,100260.42
2022-08-05T13:29:39.568Z,100257.27
2022-08-05T13:32:50.505Z,100266.38
2022-08-05T13:35:47.330Z,100260.41
2022-08-05T13:38:43.170Z,100258.05
2022-08-05T13:41:37.468Z,100256.48
2022-08-05T13:44:26.971Z,100249.74
2022-08-05T13:47:28.133Z,100251.30
2022-08-05T13:50:25.371Z,100244.98
2022-08-05T13:53:15.741Z,100243.38
2022-08-05T13:56:18.081Z,100245.72
2022-08-05T13:59:20.187Z,100237.75
2022-08-05T14:02:20.102Z,100240.48
2022-08-05T14:05:11.992Z,100246.38
2022-08-05T14:08:19.847Z,100233.69
2022-08-05T14:11:20.634Z,100239.21
2022-08-05T14:14:11.199Z,100234.84
2022-08-05T14:17:01.182Z,100231.27
2022-08-05T14:19:55.144Z,100232.83
2022-08-05T14:22:50.163Z,100224.07
2022-08-05T14:25:43.595Z,100226.41
2022-08-05T14:28:34.637Z,100222.30
2022-08-05T14:32:02.379Z,100218.34
2022-08-05T14:34:35.446Z,100224.53
2022-08-05T14:37:45.367Z,100216.59
2022-08-05T14:40:34.937Z,100216.17
2022-08-05T14:43:39.196Z,100210.63
2022-08-05T14:46:35.123Z,100212.52
2022-08-05T14:49:24.737Z,100202.99
2022-08-05T14:52:51.987Z,100210.52
2022-08-05T14:55:42.802Z,100206.17
2022-08-05T14:58:33.507Z,100206.63
2022-08-05T15:01:49.163Z,100203.87
2022-08-05T15:04:31.593Z,100193.59
2022-08-05T15:08:11.268Z,100192.78
2022-08-05T15:10:31.019Z,100195.13
2022-08-05T15:13:21.002Z,100185.97
2022-08-05T15:16:30.239Z,100182.41
2022-08-05T15:19:23.487Z,100178.84
2022-08-05T15:22:13.612Z,100177.64
2022-08-05T15:25:11.929Z,100170.48
2022-08-05T15:28:04.107Z,100169.67
2022-08-05T15:30:53.681Z,100172.44
2022-08-05T15:34:05.115Z,100170.06
2022-08-05T15:36:52.284Z,100173.60
2022-08-05T15:41:04.618Z,100176.70
2022-08-05T15:42:55.072Z,100174.63
2022-08-05T15:46:00.606Z,100166.14
2022-08-05T15:48:53.000Z,100164.39
2022-08-05T15:52:09.950Z,100159.98
2022-08-05T15:54:57.725Z,100164.31
2022-08-05T15:57:48.998Z,100167.84
2022-08-05T16:01:04.134Z,100168.20
2022-08-05T16:03:50.902Z,100172.91
2022-08-05T16:06:40.605Z,100170.48
2022-08-05T16:09:29.973Z,100168.81
2022-08-05T16:12:21.932Z,100170.33
2022-08-05T16:15:18.662Z,100171.83
2022-08-05T16:18:09.216Z,100167.81
2022-08-05T16:20:59.569Z,100158.63
2022-08-05T16:23:55.377Z,100166.83
2022-08-05T16:26:54.301Z,100164.75
2022-08-05T16:29:47.490Z,100165.08
2022-08-05T16:32:40.567Z,100164.20
2022-08-05T16:35:34.522Z,100166.81
2022-08-05T16:38:31.656Z,100162.71
2022-08-05T16:42:12.118Z,100166.55
2022-08-05T16:44:31.228Z,100168.34
2022-08-05T16:47:28.760Z,100168.17
2022-08-05T16:50:26.354Z,100175.48
2022-08-05T16:53:22.823Z,100173.31
2022-08-05T16:56:21.067Z,100177.08
2022-08-05T16:59:15.747Z,100187.91
2022-08-05T17:02:06.866Z,100188.52
2022-08-05T17:04:58.392Z,100198.44
2022-08-05T17:07:54.577Z,100191.87
2022-08-05T17:10:44.192Z,100197.10
2022-08-05T17:13:37.638Z,100197.59
2022-08-05T17:16:33.702Z,100194.06
2022-08-05T17:19:25.317Z,100203.99
2022-08-05T17:22:24.446Z,100200.47
2022-08-05T17:25:22.299Z,100203.21
2022-08-05T17:28:24.144Z,100204.39
2022-08-05T17:31:24.524Z,100213.90
2022-08-05T17:34:29.853Z,100214.23
2022-08-05T17:37:39.539Z,100221.64
2022-08-05T17:40:31.521Z,100225.61
2022-08-05T17:43:46.910Z,100224.52
2022-08-05T17:46:31.827Z,100225.34
2022-08-05T17:49:22.441Z,100230.86
2022-08-05T17:52:12.628Z,100224.70
2022-08-05T17:55:02.983Z,100236.64
2022-08-05T17:57:52.189Z,100230.02
2022-08-05T18:00:45.195Z,100242.30
2022-08-05T18:03:59.518Z,100236.77
2022-08-05T18:06:46.103Z,100240.66
2022-08-05T18:09:59.050Z,100245.00
2022-08-05T18:12:49.637Z,100249.34
2022-08-05T18:15:38.995Z,100250.15
2022-08-05T18:18:30.205Z,100253.63
2022-08-05T18:21:22.782Z,100267.00
2022-08-05T18:24:15.499Z,100265.83
2022-08-05T18:27:06.454Z,100258.81
2022-08-05T18:30:03.046Z,100266.67
2022-08-05T18:33:00.200Z,100267.87
2022-08-05T18:36:03.339Z,100268.25
2022-08-05T18:38:54.035Z,100271.08
2022-08-05T18:41:56.684Z,100264.86
2022-08-05T18:44:56.549Z,100266.05
2022-08-05T18:47:50.137Z,100265.66
2022-08-05T18:51:49.597Z,100266.83
2022-08-05T18:54:09.551Z,100269.14
2022-08-05T18:56:57.897Z,100273.52
2022-08-05T19:00:01.374Z,100281.80
2022-08-05T19:02:53.141Z,100272.00
2022-08-05T19:06:12.713Z,100276.05
2022-08-05T19:08:52.651Z,100282.70
2022-08-05T19:12:00.426Z,100279.67
2022-08-05T19:15:00.847Z,100282.40
2022-08-05T19:18:09.715Z,100277.75
2022-08-05T19:21:01.134Z,100279.70
2022-08-05T19:24:07.482Z,100272.80
2022-08-05T19:26:58.094Z,100269.77
2022-08-05T19:29:49.442Z,100269.45
2022-08-05T19:32:38.683Z,100271.88
2022-08-05T19:35:27.635Z,100277.03
2022-08-05T19:38:36.815Z,100276.69
2022-08-05T19:41:58.184Z,100275.55
2022-08-05T19:44:38.738Z,100285.38
2022-08-05T19:47:37.181Z,100281.19
2022-08-05T19:50:27.532Z,100279.27
2022-08-05T19:53:16.698Z,100280.84
2022-08-05T19:56:32.674Z,100285.83
2022-08-05T19:59:56.247Z,100277.30
2022-08-05T20:02:33.547Z,100282.41
2022-08-05T20:05:26.192Z,100280.13
2022-08-05T20:08:32.728Z,100277.05
2022-08-05T20:11:23.777Z,100291.97
2022-08-05T20:14:18.096Z,100279.92
2022-08-05T20:17:16.272Z,100279.24
2022-08-05T20:20:09.452Z,100280.20
2022-08-05T20:23:03.833Z,100283.08
2022-08-05T20:25:54.023Z,100287.06
2022-08-05T20:28:43.962Z,100289.60
2022-08-05T20:31:43.222Z,100291.35
2022-08-05T20:34:43.137Z,100292.27
2022-08-05T20:38:05.459Z,100301.09
2022-08-05T20:40:43.296Z,100292.71
2022-08-05T20:43:59.927Z,100298.00
2022-08-05T20:46:43.422Z,100293.17
2022-08-05T20:49:39.777Z,100284.80
2022-08-05T20:52:28.960Z,100284.63
2022-08-05T20:55:56.479Z,100282.82
2022-08-05T20:58:27.565Z,100286.17
2022-08-05T21:01:17.995Z,100280.55
2022-08-05T21:04:15.518Z,100280.68
2022-08-05T21:07:05.299Z,100274.23
2022-08-05T21:09:57.536Z,100268.59
2022-08-05T21:12:58.341Z,100271.14
2022-08-05T21:15:56.587Z,100269.66
2022-08-05T21:18:45.925Z,100268.67
2022-08-05T21:21:39.896Z,100271.48
2022-08-05T21:24:39.814Z,100273.22
2022-08-05T21:27:38.773Z,100269.50
2022-08-05T21:30:28.385Z,100266.08
2022-08-05T21:33:22.308Z,100274.08
2022-08-05T21:36:13.267Z,100271.48
2022-08-05T21:39:09.324Z,100270.48
2022-08-05T21:42:01.926Z,100269.45
2022-08-05T21:44:51.233Z,100267.66
2022-08-05T21:47:56.385Z,100268.58
2022-08-05T21:50:54.017Z,100265.17
2022-08-05T21:53:43.485Z,100259.02
2022-08-05T21:56:51.545Z,100263.79
2022-08-05T22:00:02.094Z,100256.52
2022-08-05T22:03:01.569Z,100261.47
2022-08-05T22:05:50.526Z,100262.87
2022-08-05T22:08:42.457Z,100265.09
2022-08-05T22:11:34.528Z,100259.94
2022-08-05T22:14:34.994Z,100258.64
2022-08-05T22:17:27.256Z,100264.37
2022-08-05T22:20:17.916Z,100254.59
2022-08-05T22:23:25.246Z,100251.38
2022-08-05T22:26:52.709Z,100253.91
2022-08-05T22:29:42.081Z,100251.48
2022-08-05T22:32:33.498Z,100253.70
2022-08-05T22:35:22.567Z,100258.64
2022-08-05T22:38:12.947Z,100258.96
2022-08-05T22:41:09.440Z,100257.64
2022-08-05T22:43:59.786Z,100250.90
2022-08-05T22:46:48.949Z,100254.23
2022-08-05T22:50:20.401Z,100252.62
2022-08-05T22:52:47.160Z,100253.52
2022-08-05T22:55:37.154Z,100253.01
2022-08-05T22:58:46.364Z,100256.33
2022-08-05T23:02:05.095Z,100256.15
2022-08-05T23:04:52.015Z,100260.58
2022-08-05T23:07:45.187Z,100261.98
2022-08-05T23:10:38.454Z,100249.30
2022-08-05T23:13:27.823Z,100257.23
2022-08-05T23:16:38.699Z,100255.44
2022-08-05T23:19:38.509Z,100251.95
2022-08-05T23:22:35.667Z,100246.33
2022-08-05T23:25:52.395Z,100245.31
2022-08-05T23:28:35.733Z,100247.30
2022-08-05T23:31:24.258Z,100244.39
2022-08-05T23:34:13.470Z,100249.92
2022-08-05T23:37:13.644Z,100236.42
2022-08-05T23:40:09.497Z,100245.97
2022-08-05T23:43:01.142Z,100242.55
2022-08-05T23:46:01.418Z,100236.88
2022-08-05T23:49:00.974Z,100230.43
2022-08-05T23:52:08.827Z,100227.52
2022-08-05T23:55:00.489Z,100233.83
2022-08-05T23:57:51.259Z,100237.45
